Time;durP1;ratioP1;P1;durP2;ratioP2;P2;SDS_P1;SDS_P2;PMS_P1;PMS_P2;Temp;Humidity;BMP_temperature;BMP_pressure;BME280_temperature;BME280_humidity;BME280_pressure;Samples;Min_cycle;Max_cycle;Signal;HPM_P1;HPM_P2
2022/01/14 00:01:25;;;;;;;4.00;3.27;;;5.60;99.90;;;;;;5075348;28;20443;-70
2022/01/14 00:04:13;;;;;;;0.50;0.50;;;5.60;99.90;;;;;;5076081;28;20795;-70
2022/01/14 00:07:00;;;;;;;17.10;7.33;;;5.60;99.90;;;;;;5075318;28;20467;-70
2022/01/14 00:09:47;;;;;;;5.40;3.50;;;5.50;99.90;;;;;;5075813;28;20439;-70
2022/01/14 00:12:50;;;;;;;2.80;1.43;;;5.50;99.90;;;;;;5094730;27;20585;-72
2022/01/14 00:15:37;;;;;;;13.63;6.60;;;5.60;99.90;;;;;;5093914;28;20492;-71
2022/01/14 00:18:24;;;;;;;4.03;2.40;;;5.60;99.90;;;;;;5106365;28;20427;-71
2022/01/14 00:21:11;;;;;;;2.03;1.90;;;5.60;99.90;;;;;;5108849;28;20466;-68
2022/01/14 00:24:07;;;;;;;6.83;4.77;;;5.60;99.90;;;;;;5108202;28;20427;-72
2022/01/14 00:33:07;;;;;;;5.07;2.77;;;5.60;99.90;;;;;;5112119;28;20470;-71
2022/01/14 00:35:54;;;;;;;3.90;2.00;;;5.60;99.90;;;;;;5110286;28;20536;-71
2022/01/14 00:38:41;;;;;;;6.53;3.20;;;5.60;99.90;;;;;;5109688;28;20425;-69
2022/01/14 00:41:28;;;;;;;13.83;7.80;;;5.60;99.90;;;;;;5110299;28;20465;-69
2022/01/14 00:44:17;;;;;;;0.47;0.47;;;5.60;99.90;;;;;;5110377;28;20991;-70
2022/01/14 00:47:05;;;;;;;4.83;2.10;;;5.50;99.90;;;;;;5109600;28;20429;-70
2022/01/14 00:49:52;;;;;;;7.30;2.10;;;5.60;99.90;;;;;;5109112;28;20432;-70
2022/01/14 00:52:41;;;;;;;4.53;2.30;;;5.50;99.90;;;;;;5109445;28;20418;-69
2022/01/14 00:55:40;;;;;;;1.13;1.13;;;5.60;99.90;;;;;;5109142;28;20425;-69
2022/01/14 01:01:32;;;;;;;2.30;2.20;;;5.60;99.90;;;;;;5109415;28;20501;-70
2022/01/14 01:04:25;;;;;;;2.37;2.27;;;5.60;99.90;;;;;;5109542;28;20437;-69
2022/01/14 01:07:14;;;;;;;12.40;3.50;;;5.60;99.90;;;;;;5110237;28;20508;-70
2022/01/14 01:10:01;;;;;;;10.77;5.73;;;5.60;99.90;;;;;;5109212;28;20424;-70
2022/01/14 01:12:52;;;;;;;4.73;1.27;;;5.70;99.90;;;;;;5108482;28;20416;-70
2022/01/14 01:15:39;;;;;;;6.63;3.63;;;5.70;99.90;;;;;;5109139;28;20413;-70
2022/01/14 01:18:26;;;;;;;3.60;2.33;;;5.60;99.90;;;;;;5110778;28;20414;-70
2022/01/14 01:21:14;;;;;;;7.00;3.07;;;5.60;99.90;;;;;;5123743;28;20457;-70
2022/01/14 01:24:01;;;;;;;0.83;0.83;;;5.60;99.90;;;;;;5095921;28;20426;-70
2022/01/14 01:26:50;;;;;;;11.23;2.87;;;5.60;99.90;;;;;;5094970;28;20426;-70
2022/01/14 01:29:52;;;;;;;6.00;2.77;;;5.60;99.90;;;;;;5095503;28;20422;-72
2022/01/14 01:32:39;;;;;;;5.60;4.57;;;5.70;99.90;;;;;;5094991;28;20467;-70
2022/01/14 01:35:26;;;;;;;5.70;4.60;;;5.60;99.90;;;;;;5095254;28;20430;-70
2022/01/14 01:38:17;;;;;;;5.20;2.63;;;5.60;99.90;;;;;;5095186;28;20429;-70
2022/01/14 01:41:05;;;;;;;5.83;3.80;;;5.60;99.90;;;;;;5111176;28;20461;-70
2022/01/14 01:43:54;;;;;;;3.53;1.63;;;5.60;99.90;;;;;;5114450;28;20509;-70
2022/01/14 01:46:45;;;;;;;0.87;0.87;;;5.60;99.90;;;;;;5114878;28;20509;-70
2022/01/14 01:49:34;;;;;;;1.77;1.67;;;5.60;99.90;;;;;;5115562;28;20422;-70
2022/01/14 01:52:21;;;;;;;1.37;1.30;;;5.60;99.90;;;;;;5114477;28;20433;-70
2022/01/14 01:55:10;;;;;;;0.60;0.60;;;5.60;99.90;;;;;;5115663;28;20429;-70
2022/01/14 01:57:57;;;;;;;7.10;4.10;;;5.60;99.90;;;;;;5115583;28;20458;-70
2022/01/14 02:00:44;;;;;;;7.13;2.83;;;5.60;99.90;;;;;;5114605;28;20670;-70
2022/01/14 02:03:32;;;;;;;1.03;1.03;;;5.60;99.90;;;;;;5098954;28;20972;-70
2022/01/14 02:06:22;;;;;;;6.43;3.17;;;5.60;99.90;;;;;;5114963;28;20885;-70
2022/01/14 02:09:10;;;;;;;2.83;2.73;;;5.60;99.90;;;;;;5114036;28;20430;-70
2022/01/14 02:11:58;;;;;;;2.80;2.60;;;5.60;99.90;;;;;;5113631;28;20964;-70
2022/01/14 02:15:07;;;;;;;21.43;6.40;;;5.60;99.90;;;;;;5114096;28;20422;-70
2022/01/14 02:18:25;;;;;;;7.40;5.00;;;5.50;99.90;;;;;;5113029;28;20425;-70
2022/01/14 02:24:33;;;;;;;20.43;8.10;;;5.50;99.90;;;;;;5113259;28;20417;-70
2022/01/14 02:27:21;;;;;;;5.53;3.90;;;5.50;99.90;;;;;;5115410;28;20417;-70
2022/01/14 02:30:09;;;;;;;6.17;3.63;;;5.40;99.90;;;;;;5114320;28;20428;-69
2022/01/14 02:32:57;;;;;;;15.10;9.03;;;5.40;99.90;;;;;;5113373;28;20418;-70
2022/01/14 02:35:47;;;;;;;0.47;0.47;;;5.40;99.90;;;;;;5113450;28;20428;-71
2022/01/14 02:38:35;;;;;;;4.70;2.00;;;5.40;99.90;;;;;;5114069;28;20428;-69
2022/01/14 02:41:22;;;;;;;0.67;0.67;;;5.30;99.90;;;;;;5113079;28;20469;-71
2022/01/14 02:44:17;;;;;;;2.40;2.20;;;5.30;99.90;;;;;;5113575;28;20426;-70
2022/01/14 02:47:06;;;;;;;7.50;4.63;;;5.30;99.90;;;;;;5113519;28;20425;-70
2022/01/14 02:49:53;;;;;;;1.73;1.33;;;5.30;99.90;;;;;;5113330;28;20418;-70
2022/01/14 02:52:57;;;;;;;5.80;3.53;;;5.20;99.90;;;;;;5112606;28;20421;-70
2022/01/14 02:55:45;;;;;;;23.60;9.97;;;5.20;99.90;;;;;;5113788;28;20425;-70
2022/01/14 02:58:34;;;;;;;0.40;0.40;;;5.20;99.90;;;;;;5113089;28;20422;-70
2022/01/14 03:01:23;;;;;;;19.27;8.83;;;5.20;99.90;;;;;;5111386;28;20980;-70
2022/01/14 03:04:14;;;;;;;15.03;4.63;;;5.20;99.90;;;;;;5114264;28;20429;-69
2022/01/14 03:07:01;;;;;;;12.00;4.10;;;5.20;99.90;;;;;;5114574;28;20963;-70
2022/01/14 03:09:48;;;;;;;1.40;1.30;;;5.30;99.90;;;;;;5113309;28;20421;-70
2022/01/14 03:12:37;;;;;;;7.20;2.77;;;5.20;99.90;;;;;;5113858;28;20821;-70
2022/01/14 03:15:24;;;;;;;5.47;3.07;;;5.30;99.90;;;;;;5128460;28;20418;-70
2022/01/14 03:18:11;;;;;;;1.67;1.33;;;5.30;99.90;;;;;;5117033;28;20437;-70
2022/01/14 03:21:09;;;;;;;1.90;1.53;;;5.20;99.90;;;;;;5112676;28;20463;-70
2022/01/14 03:24:14;;;;;;;1.83;1.77;;;5.20;99.90;;;;;;5113867;28;20430;-70
2022/01/14 03:27:01;;;;;;;1.87;1.73;;;5.20;99.90;;;;;;5113252;28;20421;-70
2022/01/14 03:29:50;;;;;;;0.40;0.40;;;5.20;99.90;;;;;;5111951;28;20414;-70
2022/01/14 03:32:37;;;;;;;0.40;0.40;;;5.20;99.90;;;;;;5113516;28;20421;-70
2022/01/14 03:35:24;;;;;;;4.03;3.03;;;5.20;99.90;;;;;;5113187;28;20420;-71
2022/01/14 03:38:11;;;;;;;5.07;3.50;;;5.10;99.90;;;;;;5113198;28;20420;-70
2022/01/14 03:40:58;;;;;;;9.63;4.97;;;5.10;99.90;;;;;;5113015;28;20437;-70
2022/01/14 03:43:45;;;;;;;1.90;1.80;;;5.10;99.90;;;;;;5113260;28;20944;-70
2022/01/14 03:46:33;;;;;;;3.63;2.93;;;5.10;99.90;;;;;;5113067;28;20789;-70
2022/01/14 03:49:20;;;;;;;0.40;0.40;;;5.10;99.90;;;;;;5113681;28;20421;-70
2022/01/14 03:52:08;;;;;;;0.40;0.40;;;5.10;99.90;;;;;;5113131;28;20434;-70
2022/01/14 03:54:55;;;;;;;0.57;0.57;;;5.10;99.90;;;;;;5112404;28;20429;-70
2022/01/14 03:57:41;;;;;;;1.00;1.00;;;5.20;99.90;;;;;;5113597;28;20424;-70
2022/01/14 04:00:30;;;;;;;6.97;4.53;;;5.20;99.90;;;;;;5113088;28;20429;-70
2022/01/14 04:03:18;;;;;;;2.30;1.90;;;5.20;99.90;;;;;;5112786;28;20460;-70
2022/01/14 04:06:06;;;;;;;10.57;6.33;;;5.20;99.90;;;;;;5113064;28;20435;-70
2022/01/14 04:08:53;;;;;;;1.17;1.07;;;5.10;99.90;;;;;;5122993;28;20434;-70
2022/01/14 04:11:40;;;;;;;3.23;2.93;;;5.10;99.90;;;;;;5131778;28;20453;-69
2022/01/14 04:17:31;;;;;;;8.80;2.83;;;5.10;99.90;;;;;;5112167;28;20414;-70
2022/01/14 04:20:20;;;;;;;2.40;1.47;;;4.70;99.90;;;;;;5112853;28;20414;-69
2022/01/14 04:23:08;;;;;;;18.23;8.17;;;5.10;99.90;;;;;;5113682;28;20852;-70
2022/01/14 04:25:56;;;;;;;11.83;4.93;;;5.10;99.90;;;;;;5103688;28;20787;-70
2022/01/14 04:28:43;;;;;;;7.83;3.83;;;5.10;99.90;;;;;;5112806;28;20417;-70
2022/01/14 04:31:30;;;;;;;3.53;0.93;;;5.00;99.90;;;;;;5113001;28;20437;-70
2022/01/14 04:34:17;;;;;;;5.60;3.40;;;5.00;99.90;;;;;;5112810;28;20417;-70
2022/01/14 04:37:06;;;;;;;0.87;0.87;;;5.00;99.90;;;;;;5112862;28;20941;-70
2022/01/14 04:39:53;;;;;;;0.60;0.60;;;5.00;99.90;;;;;;5111482;28;20930;-70
2022/01/14 04:42:42;;;;;;;10.97;5.23;;;5.00;99.90;;;;;;5112563;28;20457;-70
2022/01/14 04:45:42;;;;;;;7.00;2.77;;;5.00;99.90;;;;;;5112767;28;20421;-70
2022/01/14 04:48:29;;;;;;;20.23;4.77;;;5.00;99.90;;;;;;5112471;28;20483;-69
2022/01/14 04:51:19;;;;;;;0.40;0.40;;;5.00;99.90;;;;;;5110840;28;20452;-70
2022/01/14 04:54:08;;;;;;;0.77;0.77;;;5.00;99.90;;;;;;5112202;28;20427;-70
2022/01/14 04:56:55;;;;;;;1.07;1.00;;;5.00;99.90;;;;;;5111646;28;20426;-70
2022/01/14 04:59:43;;;;;;;8.23;3.77;;;5.00;99.90;;;;;;5115797;28;20772;-70
2022/01/14 05:02:30;;;;;;;3.50;2.00;;;5.00;99.90;;;;;;5114979;28;20469;-70
2022/01/14 05:05:19;;;;;;;0.77;0.77;;;5.00;99.90;;;;;;5116395;28;20421;-70
2022/01/14 05:08:10;;;;;;;4.87;2.30;;;5.00;99.90;;;;;;5116117;28;20826;-70
2022/01/14 05:11:15;;;;;;;12.83;4.77;;;5.00;99.90;;;;;;5115770;28;20473;-70
2022/01/14 05:14:02;;;;;;;16.97;8.30;;;4.90;99.90;;;;;;5116153;28;20424;-70
2022/01/14 05:16:48;;;;;;;0.60;0.60;;;4.90;99.90;;;;;;5120871;28;20526;-69
2022/01/14 05:19:35;;;;;;;1.27;1.27;;;4.90;99.90;;;;;;5124837;28;20425;-70
2022/01/14 05:22:22;;;;;;;7.83;4.53;;;4.80;99.90;;;;;;5116129;28;20461;-71
2022/01/14 05:25:11;;;;;;;1.57;1.07;;;4.80;99.90;;;;;;5113856;28;20917;-70
2022/01/14 05:28:00;;;;;;;6.20;3.77;;;4.80;99.90;;;;;;5115814;28;20418;-70
2022/01/14 05:30:47;;;;;;;1.13;0.80;;;4.80;99.90;;;;;;5115433;28;20510;-70
2022/01/14 05:33:33;;;;;;;11.43;5.63;;;4.80;99.90;;;;;;5115713;28;20433;-70
2022/01/14 05:36:21;;;;;;;15.03;5.60;;;4.70;99.90;;;;;;5115559;28;20421;-70
2022/01/14 05:39:09;;;;;;;8.00;4.60;;;4.70;99.90;;;;;;5115248;28;20436;-70
2022/01/14 05:41:56;;;;;;;0.80;0.80;;;4.70;99.90;;;;;;5115316;28;20793;-70
2022/01/14 05:44:44;;;;;;;10.27;5.53;;;4.80;99.90;;;;;;5115558;28;20914;-70
2022/01/14 05:47:31;;;;;;;8.87;3.73;;;4.70;99.90;;;;;;5115108;28;20566;-70
2022/01/14 05:50:20;;;;;;;5.50;2.50;;;4.70;99.90;;;;;;5114945;28;20417;-70
2022/01/14 05:53:08;;;;;;;4.53;4.23;;;4.70;99.90;;;;;;5115382;28;20422;-70
2022/01/14 05:55:54;;;;;;;12.77;5.97;;;4.70;99.90;;;;;;5115562;28;20466;-70
2022/01/14 05:58:41;;;;;;;4.93;4.40;;;4.70;99.90;;;;;;5115194;28;20413;-70
2022/01/14 06:01:30;;;;;;;16.73;7.77;;;4.70;99.90;;;;;;5115314;28;20953;-70
2022/01/14 06:04:17;;;;;;;6.17;4.57;;;4.60;99.90;;;;;;5115139;28;20422;-70
2022/01/14 06:07:05;;;;;;;8.63;2.53;;;4.60;99.90;;;;;;5115336;28;20424;-70
2022/01/14 06:09:52;;;;;;;7.40;2.20;;;4.60;99.90;;;;;;5113249;28;20499;-70
2022/01/14 06:12:39;;;;;;;6.13;2.97;;;4.60;99.90;;;;;;5115564;28;20426;-70
2022/01/14 06:15:26;;;;;;;9.07;4.60;;;4.60;99.90;;;;;;5116076;28;20417;-70
2022/01/14 06:18:15;;;;;;;0.40;0.40;;;4.60;99.90;;;;;;5113994;28;20433;-70
2022/01/14 06:21:02;;;;;;;15.20;5.60;;;4.60;99.90;;;;;;5115445;28;20445;-70
2022/01/14 06:23:49;;;;;;;11.73;5.97;;;4.60;99.90;;;;;;5137134;22;20500;-70
2022/01/14 06:26:36;;;;;;;3.37;2.73;;;4.70;99.90;;;;;;5035523;28;20766;-68
2022/01/14 06:29:23;;;;;;;4.40;2.67;;;4.70;99.90;;;;;;5036290;28;20998;-69
2022/01/14 06:32:10;;;;;;;6.40;3.07;;;4.70;99.90;;;;;;5036273;28;20425;-69
2022/01/14 06:34:58;;;;;;;15.47;6.13;;;4.70;99.90;;;;;;5036218;28;20459;-69
2022/01/14 06:37:45;;;;;;;8.57;5.33;;;4.70;99.90;;;;;;5035930;28;20422;-69
2022/01/14 06:40:33;;;;;;;18.03;9.70;;;4.70;99.90;;;;;;5051941;28;20424;-70
2022/01/14 06:43:20;;;;;;;5.03;2.87;;;4.80;99.90;;;;;;5054340;28;20782;-71
2022/01/14 06:46:07;;;;;;;27.97;11.90;;;4.80;99.90;;;;;;5053177;28;20455;-70
2022/01/14 06:48:54;;;;;;;7.30;2.87;;;4.80;99.90;;;;;;5055056;28;20806;-71
2022/01/14 06:51:42;;;;;;;15.40;8.37;;;4.80;99.90;;;;;;5054152;28;20421;-70
2022/01/14 06:54:29;;;;;;;0.40;0.40;;;4.80;99.90;;;;;;5053306;28;20472;-72
2022/01/14 06:57:16;;;;;;;5.03;2.43;;;4.90;99.90;;;;;;5049191;28;20597;-68
2022/01/14 07:00:05;;;;;;;10.27;4.57;;;4.90;99.90;;;;;;5044641;28;20429;-69
2022/01/14 07:02:52;;;;;;;9.37;4.70;;;4.90;99.90;;;;;;5044631;28;20472;-69
2022/01/14 07:05:39;;;;;;;1.30;1.13;;;5.00;99.90;;;;;;5047538;28;20441;-68
2022/01/14 07:08:27;;;;;;;1.43;1.23;;;5.00;99.90;;;;;;5045512;28;20424;-69
2022/01/14 07:11:15;;;;;;;0.47;0.47;;;5.00;99.90;;;;;;5039888;28;20532;-68
2022/01/14 07:14:02;;;;;;;15.37;7.07;;;5.10;99.90;;;;;;5034223;28;20449;-70
2022/01/14 07:16:49;;;;;;;24.53;10.10;;;5.10;99.90;;;;;;5014793;28;20445;-68
2022/01/14 07:19:37;;;;;;;3.07;2.93;;;5.10;99.90;;;;;;5012946;28;20436;-69
2022/01/14 07:22:24;;;;;;;0.70;0.70;;;5.20;99.90;;;;;;5012995;28;20423;-70
2022/01/14 07:25:12;;;;;;;3.80;1.47;;;5.20;99.90;;;;;;5013025;28;20457;-69
2022/01/14 07:27:59;;;;;;;0.60;0.60;;;5.20;99.90;;;;;;5013743;28;20469;-69
2022/01/14 07:30:46;;;;;;;0.40;0.40;;;5.20;99.90;;;;;;5013137;28;20422;-69
2022/01/14 07:33:33;;;;;;;10.63;3.60;;;5.20;99.90;;;;;;5016299;28;20425;-69
2022/01/14 07:36:20;;;;;;;12.83;3.60;;;5.20;99.90;;;;;;5015685;28;20442;-68
2022/01/14 07:39:07;;;;;;;1.87;1.77;;;5.20;99.90;;;;;;5013513;28;20439;-69
2022/01/14 07:41:56;;;;;;;1.33;1.23;;;5.20;99.90;;;;;;5011874;28;20434;-69
2022/01/14 07:44:43;;;;;;;1.33;0.83;;;5.20;99.90;;;;;;5011716;28;20875;-68
2022/01/14 07:47:30;;;;;;;1.80;1.63;;;5.20;99.90;;;;;;5017114;28;20503;-69
2022/01/14 07:50:17;;;;;;;5.27;1.63;;;5.20;99.90;;;;;;5022382;28;20815;-69
2022/01/14 07:53:04;;;;;;;6.70;6.00;;;5.20;99.90;;;;;;5012237;28;20957;-68
2022/01/14 07:55:52;;;;;;;11.17;4.13;;;5.20;99.90;;;;;;5012694;28;20422;-68
2022/01/14 07:58:41;;;;;;;9.60;4.23;;;5.20;99.90;;;;;;5012135;28;20968;-68
2022/01/14 08:01:28;;;;;;;10.17;5.00;;;5.20;99.90;;;;;;5011540;28;20959;-67
2022/01/14 08:04:17;;;;;;;0.73;0.73;;;5.20;99.90;;;;;;5021503;28;20507;-67
2022/01/14 08:07:11;;;;;;;1.70;1.70;;;5.20;99.90;;;;;;5017190;28;20442;-67
2022/01/14 08:09:58;;;;;;;0.70;0.70;;;5.20;99.90;;;;;;5019838;28;20457;-69
2022/01/14 08:12:46;;;;;;;2.57;2.10;;;5.20;99.90;;;;;;5020691;28;20426;-68
2022/01/14 08:15:34;;;;;;;15.17;5.70;;;5.30;99.90;;;;;;5032405;28;20456;-69
2022/01/14 08:18:21;;;;;;;2.40;2.13;;;5.20;99.90;;;;;;5020072;28;20480;-69
2022/01/14 08:21:08;;;;;;;3.17;2.37;;;5.20;99.90;;;;;;5035723;28;20433;-69
2022/01/14 08:23:56;;;;;;;1.57;1.53;;;5.30;99.90;;;;;;5032358;28;20472;-71
2022/01/14 08:26:42;;;;;;;14.53;3.50;;;5.20;99.90;;;;;;5028043;28;20940;-69
2022/01/14 08:29:30;;;;;;;15.93;5.47;;;5.20;99.90;;;;;;5015616;28;20802;-69
2022/01/14 08:32:19;;;;;;;4.50;2.50;;;5.30;99.90;;;;;;5023222;28;20484;-70
2022/01/14 08:35:06;;;;;;;2.13;1.57;;;5.30;99.90;;;;;;5025220;28;20831;-67
2022/01/14 08:37:53;;;;;;;1.70;1.60;;;5.30;99.90;;;;;;5013765;28;20442;-68
2022/01/14 08:40:41;;;;;;;0.77;0.57;;;5.30;99.90;;;;;;5028523;28;21099;-68
2022/01/14 08:43:28;;;;;;;7.50;3.30;;;5.30;99.90;;;;;;5019910;28;20465;-68
2022/01/14 08:46:15;;;;;;;4.03;2.40;;;5.30;99.90;;;;;;5056512;28;20448;-68
2022/01/14 08:49:04;;;;;;;16.70;5.20;;;5.40;99.90;;;;;;5040478;28;20437;-69
2022/01/14 08:51:51;;;;;;;12.87;5.33;;;5.40;99.90;;;;;;5052166;28;20434;-69
2022/01/14 08:54:39;;;;;;;9.90;4.93;;;5.50;99.90;;;;;;5038064;28;20450;-70
2022/01/14 08:57:25;;;;;;;5.67;3.30;;;5.40;99.90;;;;;;5047498;28;20425;-69
2022/01/14 09:00:15;;;;;;;9.53;5.30;;;5.50;99.90;;;;;;5049929;28;20448;-69
2022/01/14 09:03:03;;;;;;;5.30;2.20;;;5.50;99.90;;;;;;5057898;28;20428;-69
2022/01/14 09:05:51;;;;;;;2.50;2.30;;;5.50;99.90;;;;;;5050695;28;20486;-69
2022/01/14 09:08:38;;;;;;;6.60;5.60;;;5.50;99.90;;;;;;5050348;28;20429;-69
2022/01/14 09:11:25;;;;;;;8.33;3.33;;;5.50;99.90;;;;;;5051220;28;20448;-70
2022/01/14 09:14:12;;;;;;;6.10;2.80;;;5.60;99.90;;;;;;5052778;28;20448;-69
2022/01/14 09:17:00;;;;;;;0.90;0.57;;;5.70;99.90;;;;;;5034692;28;20429;-70
2022/01/14 09:19:47;;;;;;;2.63;1.57;;;5.60;99.90;;;;;;5035574;28;20424;-69
2022/01/14 09:22:36;;;;;;;17.10;6.63;;;5.60;99.90;;;;;;5031595;28;20998;-68
2022/01/14 09:25:23;;;;;;;1.13;1.13;;;5.60;99.90;;;;;;5034416;28;20853;-69
2022/01/14 09:28:10;;;;;;;1.37;1.27;;;5.70;99.90;;;;;;5021363;28;21321;-69
2022/01/14 09:30:58;;;;;;;0.77;0.77;;;5.70;99.90;;;;;;5029855;28;20421;-69
2022/01/14 09:33:45;;;;;;;3.13;2.13;;;5.80;99.90;;;;;;5029048;28;20449;-69
2022/01/14 09:36:32;;;;;;;2.07;1.93;;;5.80;99.90;;;;;;5027263;28;20426;-69
2022/01/14 09:39:21;;;;;;;4.77;4.33;;;5.90;99.90;;;;;;5028950;28;20421;-68
2022/01/14 09:42:08;;;;;;;3.37;2.40;;;5.90;99.90;;;;;;5014991;28;20430;-69
2022/01/14 09:44:55;;;;;;;3.07;1.87;;;5.90;99.90;;;;;;5023503;28;20483;-69
2022/01/14 09:47:43;;;;;;;10.33;8.03;;;5.90;99.90;;;;;;5028799;28;20433;-69
2022/01/14 09:50:30;;;;;;;1.43;1.10;;;5.90;99.90;;;;;;5023668;28;20421;-69
2022/01/14 09:53:17;;;;;;;7.00;3.30;;;5.90;99.90;;;;;;5020139;28;20425;-68
2022/01/14 09:56:06;;;;;;;20.00;7.20;;;5.90;99.90;;;;;;5025392;28;20448;-69
2022/01/14 09:58:53;;;;;;;4.13;2.57;;;6.00;99.90;;;;;;5026271;28;20425;-69
2022/01/14 10:01:41;;;;;;;0.63;0.63;;;6.10;99.90;;;;;;5027837;28;20440;-69
2022/01/14 10:04:29;;;;;;;8.60;3.20;;;6.10;99.90;;;;;;5024616;28;20993;-70
2022/01/14 10:07:16;;;;;;;0.60;0.60;;;6.10;99.90;;;;;;5019993;28;20436;-69
2022/01/14 10:10:23;;;;;;;1.07;0.83;;;6.10;99.90;;;;;;5027017;28;20547;-69
2022/01/14 10:13:17;;;;;;;6.47;4.33;;;6.10;99.90;;;;;;5018576;28;20433;-68
2022/01/14 10:16:06;;;;;;;0.47;0.47;;;6.20;99.90;;;;;;5026764;28;20442;-69
2022/01/14 10:18:53;;;;;;;3.53;1.90;;;6.20;99.90;;;;;;5026235;28;20442;-69
2022/01/14 10:21:40;;;;;;;3.70;2.90;;;6.30;99.90;;;;;;5027789;28;20429;-68
2022/01/14 10:24:31;;;;;;;3.33;2.13;;;6.30;99.90;;;;;;5035741;28;20890;-69
2022/01/14 10:27:31;;;;;;;2.57;1.47;;;6.30;99.90;;;;;;5038128;28;20437;-69
2022/01/14 10:30:21;;;;;;;9.73;5.13;;;6.40;99.90;;;;;;5026352;28;20642;-69
2022/01/14 10:33:10;;;;;;;4.93;1.13;;;6.40;99.90;;;;;;5027227;28;20425;-69
2022/01/14 10:35:58;;;;;;;0.73;0.70;;;6.40;99.90;;;;;;5031241;28;20428;-68
2022/01/14 10:38:46;;;;;;;2.43;2.17;;;6.40;99.90;;;;;;5024925;28;20805;-69
2022/01/14 10:41:34;;;;;;;8.17;3.07;;;6.40;99.90;;;;;;5021585;28;20524;-69
2022/01/14 10:44:27;;;;;;;1.40;1.30;;;6.40;99.90;;;;;;5025539;28;20473;-69
2022/01/14 10:47:17;;;;;;;0.80;0.70;;;6.40;99.90;;;;;;5019383;28;20438;-69
2022/01/14 10:50:05;;;;;;;0.50;0.50;;;6.40;99.90;;;;;;5027023;28;20444;-69
2022/01/14 10:52:52;;;;;;;5.03;4.83;;;6.50;99.90;;;;;;5025578;28;20426;-69
2022/01/14 10:55:42;;;;;;;0.70;0.70;;;6.50;99.90;;;;;;5027748;28;20445;-69
2022/01/14 10:58:32;;;;;;;6.47;3.03;;;6.50;99.90;;;;;;5027315;28;20968;-69
2022/01/14 11:01:22;;;;;;;0.53;0.53;;;6.50;99.90;;;;;;5019243;28;20471;-70
2022/01/14 11:04:13;;;;;;;0.50;0.50;;;6.60;99.90;;;;;;5029024;28;20512;-71
2022/01/14 11:07:00;;;;;;;4.13;2.87;;;6.60;99.90;;;;;;5029377;28;20426;-69
2022/01/14 11:09:47;;;;;;;9.27;3.13;;;6.60;99.90;;;;;;5032053;28;20448;-69
2022/01/14 11:12:34;;;;;;;7.23;5.13;;;6.70;99.90;;;;;;5034634;28;20429;-69
2022/01/14 11:15:23;;;;;;;0.40;0.40;;;6.70;99.90;;;;;;5024280;28;20485;-69
2022/01/14 11:18:12;;;;;;;3.97;1.57;;;6.60;99.90;;;;;;5028605;28;20421;-69
2022/01/14 11:24:05;;;;;;;15.80;4.10;;;6.70;99.90;;;;;;5011762;28;20488;-69
2022/01/14 11:26:56;;;;;;;0.40;0.40;;;6.60;99.90;;;;;;5033365;28;20433;-69
2022/01/14 11:29:45;;;;;;;5.83;2.40;;;6.60;99.90;;;;;;5031577;28;20421;-68
2022/01/14 11:32:54;;;;;;;21.33;6.63;;;6.60;99.90;;;;;;5027537;28;20515;-68
2022/01/14 11:35:41;;;;;;;7.07;3.63;;;6.60;99.90;;;;;;5029696;28;20453;-68
2022/01/14 11:38:42;;;;;;;1.33;1.33;;;6.70;99.90;;;;;;5027346;28;20515;-69
2022/01/14 11:41:51;;;;;;;7.00;3.10;;;6.70;99.90;;;;;;5029397;28;20440;-70
2022/01/14 11:44:55;;;;;;;7.03;2.43;;;6.80;99.90;;;;;;5029401;28;20476;-69
2022/01/14 11:47:59;;;;;;;8.73;4.60;;;6.70;99.90;;;;;;5020654;28;20432;-70
2022/01/14 11:50:50;;;;;;;8.10;4.77;;;6.70;99.90;;;;;;5012367;28;20523;-69
2022/01/14 11:53:44;;;;;;;3.03;2.43;;;6.80;99.90;;;;;;5018235;28;20453;-69
2022/01/14 11:56:48;;;;;;;11.20;6.23;;;6.80;99.90;;;;;;5026322;28;20424;-69
2022/01/14 11:59:46;;;;;;;4.20;3.80;;;6.80;99.90;;;;;;5033729;28;20426;-70
2022/01/14 12:02:38;;;;;;;4.80;2.10;;;6.90;99.90;;;;;;5031432;28;20426;-69
2022/01/14 12:05:26;;;;;;;3.60;3.03;;;6.90;99.90;;;;;;5030782;28;20461;-68
2022/01/14 12:08:16;;;;;;;6.50;3.70;;;6.90;99.90;;;;;;5030894;28;20437;-69
2022/01/14 12:11:24;;;;;;;2.23;1.47;;;6.90;99.90;;;;;;5016461;28;20465;-69
2022/01/14 12:14:12;;;;;;;2.10;0.80;;;6.90;99.90;;;;;;5015797;28;20827;-69
2022/01/14 12:17:12;;;;;;;6.70;3.60;;;6.90;99.90;;;;;;5031897;28;20511;-69
2022/01/14 12:20:07;;;;;;;0.47;0.47;;;7.00;99.90;;;;;;5034637;28;20439;-70
2022/01/14 12:23:06;;;;;;;1.33;0.80;;;7.00;99.90;;;;;;5031345;28;20449;-69
2022/01/14 12:25:53;;;;;;;0.47;0.47;;;7.00;99.90;;;;;;5033777;28;20475;-70
2022/01/14 12:28:42;;;;;;;3.50;2.87;;;7.00;99.90;;;;;;5016114;28;20448;-69
2022/01/14 12:31:29;;;;;;;4.03;3.73;;;7.00;99.90;;;;;;5024139;28;20441;-72
2022/01/14 12:34:16;;;;;;;14.83;3.07;;;6.90;99.90;;;;;;5021909;28;21280;-70
2022/01/14 12:37:04;;;;;;;2.70;2.13;;;6.90;99.90;;;;;;5018523;28;20467;-70
2022/01/14 12:39:52;;;;;;;1.07;0.90;;;7.00;99.90;;;;;;5031471;28;20963;-71
2022/01/14 12:42:41;;;;;;;4.70;2.70;;;6.90;99.90;;;;;;5020777;28;21195;-70
2022/01/14 12:45:36;;;;;;;4.10;2.80;;;6.90;99.90;;;;;;5017081;28;20862;-69
2022/01/14 12:48:40;;;;;;;5.37;2.60;;;6.90;99.90;;;;;;5017373;28;20426;-69
2022/01/14 12:51:29;;;;;;;8.87;4.37;;;7.00;99.90;;;;;;5033245;28;20431;-70
2022/01/14 12:54:19;;;;;;;4.23;2.63;;;6.90;99.90;;;;;;5030179;28;20917;-70
2022/01/14 12:57:06;;;;;;;0.40;0.40;;;6.90;99.90;;;;;;5031498;28;20429;-69
2022/01/14 12:59:53;;;;;;;6.10;3.07;;;6.90;99.90;;;;;;5017879;28;20430;-70
2022/01/14 13:02:42;;;;;;;6.63;3.47;;;6.90;99.90;;;;;;5017573;28;20429;-69
2022/01/14 13:05:30;;;;;;;0.70;0.60;;;6.80;99.90;;;;;;5019545;28;20499;-70
2022/01/14 13:08:17;;;;;;;7.90;3.83;;;6.90;99.90;;;;;;5020073;28;20946;-70
2022/01/14 13:11:05;;;;;;;6.53;3.00;;;6.90;99.90;;;;;;5021845;28;20440;-70
2022/01/14 13:14:00;;;;;;;6.50;2.60;;;6.90;99.90;;;;;;5026295;28;20442;-70
2022/01/14 13:16:49;;;;;;;2.80;1.73;;;7.00;99.90;;;;;;5018990;28;20946;-69
2022/01/14 13:19:39;;;;;;;3.60;2.40;;;7.00;99.90;;;;;;5022352;28;20492;-71
2022/01/14 13:22:28;;;;;;;9.77;4.30;;;7.00;99.90;;;;;;5032696;28;20468;-73
2022/01/14 13:25:17;;;;;;;9.00;2.63;;;7.10;99.90;;;;;;5035732;28;20526;-71
2022/01/14 13:28:05;;;;;;;8.57;4.10;;;7.10;99.90;;;;;;5033928;28;20456;-70
2022/01/14 13:30:52;;;;;;;4.17;3.80;;;7.10;99.90;;;;;;5039704;28;20437;-69
2022/01/14 13:33:40;;;;;;;3.90;2.70;;;7.00;99.90;;;;;;5033243;28;20429;-70
2022/01/14 13:36:29;;;;;;;3.87;2.90;;;7.00;99.90;;;;;;5022320;28;20817;-70
2022/01/14 13:39:20;;;;;;;8.80;4.83;;;7.00;99.90;;;;;;5020432;28;20421;-71
2022/01/14 13:42:22;;;;;;;7.37;4.07;;;7.00;99.90;;;;;;5022348;28;20425;-69
2022/01/14 13:45:16;;;;;;;1.43;0.77;;;7.00;99.90;;;;;;5018710;28;20916;-70
2022/01/14 13:48:09;;;;;;;2.90;2.47;;;7.00;99.90;;;;;;5036073;28;20939;-71
2022/01/14 13:51:02;;;;;;;0.90;0.90;;;7.00;99.90;;;;;;5026903;28;20422;-70
2022/01/14 13:53:51;;;;;;;12.57;2.47;;;7.20;99.90;;;;;;5015497;28;20537;-71
2022/01/14 13:56:38;;;;;;;7.40;4.00;;;7.10;99.90;;;;;;5017770;28;20422;-70
2022/01/14 13:59:27;;;;;;;5.70;2.50;;;7.00;99.90;;;;;;5014834;28;20438;-70
2022/01/14 14:02:25;;;;;;;4.20;2.80;;;7.10;99.90;;;;;;5015147;28;20425;-70
2022/01/14 14:05:32;;;;;;;0.90;0.90;;;7.00;99.90;;;;;;5014891;28;20481;-70
2022/01/14 14:08:34;;;;;;;7.50;3.53;;;7.00;99.90;;;;;;5016725;28;20773;-69
2022/01/14 14:17:37;;;;;;;1.00;1.00;;;6.80;99.90;;;;;;5019820;28;20426;-71
2022/01/14 14:20:24;;;;;;;5.33;2.77;;;6.80;99.90;;;;;;5015709;28;20960;-71
2022/01/14 14:23:20;;;;;;;1.33;1.33;;;6.80;99.90;;;;;;5015721;28;20441;-70
2022/01/14 14:26:14;;;;;;;1.10;1.10;;;6.80;99.90;;;;;;5016421;28;20461;-70
2022/01/14 14:29:21;;;;;;;4.53;2.73;;;6.80;99.90;;;;;;5034824;28;20436;-71
2022/01/14 14:32:21;;;;;;;5.67;3.30;;;6.70;99.90;;;;;;5035838;28;20433;-70
2022/01/14 14:35:10;;;;;;;1.17;1.07;;;6.60;99.90;;;;;;5033432;28;20871;-71
2022/01/14 14:37:58;;;;;;;0.50;0.50;;;6.60;99.90;;;;;;5031162;28;20434;-70
2022/01/14 14:40:47;;;;;;;1.53;1.17;;;6.70;99.90;;;;;;5032966;28;20443;-71
2022/01/14 14:43:34;;;;;;;4.63;2.10;;;6.70;99.90;;;;;;5032737;28;20430;-76
2022/01/14 14:46:22;;;;;;;2.13;2.03;;;6.70;99.90;;;;;;5046147;28;20673;-70
2022/01/14 14:49:11;;;;;;;1.23;1.23;;;6.70;99.90;;;;;;5031103;28;20442;-72
2022/01/14 14:51:58;;;;;;;0.67;0.67;;;6.70;99.90;;;;;;5027796;28;20438;-70
2022/01/14 14:54:45;;;;;;;0.70;0.70;;;6.80;99.90;;;;;;5032770;28;20949;-71
2022/01/14 14:57:32;;;;;;;5.53;4.50;;;6.70;99.90;;;;;;5040195;28;20428;-70
2022/01/14 15:00:21;;;;;;;2.63;2.20;;;6.60;99.90;;;;;;5036316;28;20429;-70
2022/01/14 15:03:09;;;;;;;9.83;3.33;;;6.60;99.90;;;;;;5042788;28;20421;-70
2022/01/14 15:05:56;;;;;;;0.50;0.50;;;6.60;99.90;;;;;;5041763;28;20464;-71
2022/01/14 15:08:43;;;;;;;1.10;1.10;;;6.60;99.90;;;;;;5043164;28;20433;-70
2022/01/14 15:11:30;;;;;;;2.77;1.60;;;6.60;99.90;;;;;;5028962;28;20446;-71
2022/01/14 15:14:17;;;;;;;0.47;0.47;;;6.60;99.90;;;;;;5045771;28;20450;-69
2022/01/14 15:17:31;;;;;;;4.50;3.70;;;6.60;99.90;;;;;;5049663;28;20437;-69